sensor_id;sensor_type;location;lat;lon;timestamp;P1;durP1;ratioP1;P2;durP2;ratioP2
56039;SDS011;43937;41.366;2.072;2024-02-16T00:00:09;19.97;;;8.00;;
56039;SDS011;43937;41.366;2.072;2024-02-16T00:02:38;18.13;;;7.25;;
56039;SDS011;43937;41.366;2.072;2024-02-16T00:05:13;15.63;;;6.78;;
56039;SDS011;43937;41.366;2.072;2024-02-16T00:07:38;17.87;;;6.90;;
56039;SDS011;43937;41.366;2.072;2024-02-16T00:10:04;16.70;;;6.47;;
56039;SDS011;43937;41.366;2.072;2024-02-16T00:12:31;14.57;;;6.47;;
56039;SDS011;43937;41.366;2.072;2024-02-16T00:14:58;16.25;;;6.85;;
56039;SDS011;43937;41.366;2.072;2024-02-16T00:17:27;17.53;;;7.67;;
56039;SDS011;43937;41.366;2.072;2024-02-16T00:19:53;18.33;;;7.40;;
56039;SDS011;43937;41.366;2.072;2024-02-16T00:22:19;17.42;;;7.68;;
56039;SDS011;43937;41.366;2.072;2024-02-16T00:24:44;19.42;;;7.75;;
56039;SDS011;43937;41.366;2.072;2024-02-16T00:27:10;19.27;;;8.43;;
56039;SDS011;43937;41.366;2.072;2024-02-16T00:29:35;18.88;;;8.18;;
56039;SDS011;43937;41.366;2.072;2024-02-16T00:32:03;21.13;;;8.18;;
56039;SDS011;43937;41.366;2.072;2024-02-16T00:34:31;19.52;;;7.90;;
56039;SDS011;43937;41.366;2.072;2024-02-16T00:36:56;19.88;;;8.43;;
56039;SDS011;43937;41.366;2.072;2024-02-16T00:39:22;20.17;;;8.73;;
56039;SDS011;43937;41.366;2.072;2024-02-16T00:41:47;22.40;;;9.80;;
56039;SDS011;43937;41.366;2.072;2024-02-16T00:44:13;22.50;;;10.10;;
56039;SDS011;43937;41.366;2.072;2024-02-16T00:46:38;22.93;;;9.90;;
56039;SDS011;43937;41.366;2.072;2024-02-16T00:49:07;24.45;;;10.10;;
56039;SDS011;43937;41.366;2.072;2024-02-16T00:51:35;22.83;;;10.20;;
56039;SDS011;43937;41.366;2.072;2024-02-16T00:54:03;23.65;;;10.50;;
56039;SDS011;43937;41.366;2.072;2024-02-16T00:56:29;22.13;;;10.13;;
56039;SDS011;43937;41.366;2.072;2024-02-16T00:58:55;29.20;;;10.05;;
56039;SDS011;43937;41.366;2.072;2024-02-16T01:01:21;19.45;;;9.10;;
56039;SDS011;43937;41.366;2.072;2024-02-16T01:03:47;20.52;;;8.77;;
56039;SDS011;43937;41.366;2.072;2024-02-16T01:06:13;22.67;;;8.75;;
56039;SDS011;43937;41.366;2.072;2024-02-16T01:08:39;21.07;;;8.90;;
56039;SDS011;43937;41.366;2.072;2024-02-16T01:11:04;24.93;;;9.10;;
56039;SDS011;43937;41.366;2.072;2024-02-16T01:13:30;21.45;;;9.25;;
56039;SDS011;43937;41.366;2.072;2024-02-16T01:15:56;22.40;;;9.27;;
56039;SDS011;43937;41.366;2.072;2024-02-16T01:18:22;22.63;;;9.63;;
56039;SDS011;43937;41.366;2.072;2024-02-16T01:20:47;17.57;;;8.67;;
56039;SDS011;43937;41.366;2.072;2024-02-16T01:23:13;20.57;;;9.07;;
56039;SDS011;43937;41.366;2.072;2024-02-16T01:25:38;21.30;;;9.30;;
56039;SDS011;43937;41.366;2.072;2024-02-16T01:28:04;19.90;;;8.67;;
56039;SDS011;43937;41.366;2.072;2024-02-16T01:30:29;20.83;;;8.47;;
56039;SDS011;43937;41.366;2.072;2024-02-16T01:32:55;16.50;;;8.55;;
56039;SDS011;43937;41.366;2.072;2024-02-16T01:35:20;21.43;;;9.03;;
56039;SDS011;43937;41.366;2.072;2024-02-16T01:37:45;24.00;;;9.50;;
56039;SDS011;43937;41.366;2.072;2024-02-16T01:40:12;18.92;;;9.02;;
56039;SDS011;43937;41.366;2.072;2024-02-16T01:42:42;21.35;;;8.75;;
56039;SDS011;43937;41.366;2.072;2024-02-16T01:45:08;18.67;;;8.52;;
56039;SDS011;43937;41.366;2.072;2024-02-16T01:47:36;22.50;;;9.00;;
56039;SDS011;43937;41.366;2.072;2024-02-16T01:50:02;22.40;;;8.88;;
56039;SDS011;43937;41.366;2.072;2024-02-16T01:52:28;21.30;;;7.97;;
56039;SDS011;43937;41.366;2.072;2024-02-16T01:54:56;19.23;;;8.90;;
56039;SDS011;43937;41.366;2.072;2024-02-16T01:57:22;24.35;;;10.05;;
56039;SDS011;43937;41.366;2.072;2024-02-16T01:59:48;24.20;;;10.07;;
56039;SDS011;43937;41.366;2.072;2024-02-16T02:02:15;21.02;;;7.50;;
56039;SDS011;43937;41.366;2.072;2024-02-16T02:04:40;22.87;;;7.80;;
56039;SDS011;43937;41.366;2.072;2024-02-16T02:07:15;25.43;;;9.80;;
56039;SDS011;43937;41.366;2.072;2024-02-16T02:09:41;21.48;;;10.75;;
56039;SDS011;43937;41.366;2.072;2024-02-16T02:12:10;21.83;;;10.27;;
56039;SDS011;43937;41.366;2.072;2024-02-16T02:14:36;24.90;;;9.00;;
56039;SDS011;43937;41.366;2.072;2024-02-16T02:17:02;24.13;;;9.85;;
56039;SDS011;43937;41.366;2.072;2024-02-16T02:19:28;26.80;;;10.80;;
56039;SDS011;43937;41.366;2.072;2024-02-16T02:21:55;24.48;;;10.85;;
56039;SDS011;43937;41.366;2.072;2024-02-16T02:24:21;26.10;;;10.73;;
56039;SDS011;43937;41.366;2.072;2024-02-16T02:26:47;22.17;;;9.57;;
56039;SDS011;43937;41.366;2.072;2024-02-16T02:29:12;18.63;;;9.20;;
56039;SDS011;43937;41.366;2.072;2024-02-16T02:31:37;21.83;;;9.57;;
56039;SDS011;43937;41.366;2.072;2024-02-16T02:34:03;19.38;;;9.18;;
56039;SDS011;43937;41.366;2.072;2024-02-16T02:36:30;18.17;;;9.02;;
56039;SDS011;43937;41.366;2.072;2024-02-16T02:38:56;20.48;;;9.20;;
56039;SDS011;43937;41.366;2.072;2024-02-16T02:41:22;21.90;;;10.18;;
56039;SDS011;43937;41.366;2.072;2024-02-16T02:43:48;22.53;;;10.20;;
56039;SDS011;43937;41.366;2.072;2024-02-16T02:46:17;22.75;;;10.35;;
56039;SDS011;43937;41.366;2.072;2024-02-16T02:48:46;24.67;;;10.52;;
56039;SDS011;43937;41.366;2.072;2024-02-16T02:51:11;23.88;;;10.10;;
56039;SDS011;43937;41.366;2.072;2024-02-16T02:53:37;28.65;;;11.30;;
56039;SDS011;43937;41.366;2.072;2024-02-16T02:56:03;22.23;;;10.55;;
56039;SDS011;43937;41.366;2.072;2024-02-16T02:58:29;25.73;;;10.70;;
56039;SDS011;43937;41.366;2.072;2024-02-16T03:00:55;25.13;;;10.60;;
56039;SDS011;43937;41.366;2.072;2024-02-16T03:03:21;25.67;;;10.27;;
56039;SDS011;43937;41.366;2.072;2024-02-16T03:05:47;28.15;;;10.95;;
56039;SDS011;43937;41.366;2.072;2024-02-16T03:08:13;24.35;;;10.63;;
56039;SDS011;43937;41.366;2.072;2024-02-16T03:10:39;21.85;;;10.23;;
56039;SDS011;43937;41.366;2.072;2024-02-16T03:13:05;21.83;;;10.38;;
56039;SDS011;43937;41.366;2.072;2024-02-16T03:15:32;24.73;;;10.48;;
56039;SDS011;43937;41.366;2.072;2024-02-16T03:17:58;22.98;;;10.73;;
56039;SDS011;43937;41.366;2.072;2024-02-16T03:20:24;25.48;;;10.98;;
56039;SDS011;43937;41.366;2.072;2024-02-16T03:22:50;23.70;;;10.95;;
56039;SDS011;43937;41.366;2.072;2024-02-16T03:25:15;23.58;;;11.23;;
56039;SDS011;43937;41.366;2.072;2024-02-16T03:27:41;27.63;;;11.03;;
56039;SDS011;43937;41.366;2.072;2024-02-16T03:30:08;24.75;;;10.65;;
56039;SDS011;43937;41.366;2.072;2024-02-16T03:32:33;25.08;;;11.13;;
56039;SDS011;43937;41.366;2.072;2024-02-16T03:34:59;25.58;;;10.90;;
56039;SDS011;43937;41.366;2.072;2024-02-16T03:37:25;25.67;;;10.73;;
56039;SDS011;43937;41.366;2.072;2024-02-16T03:39:51;25.42;;;11.02;;
56039;SDS011;43937;41.366;2.072;2024-02-16T03:42:17;21.90;;;7.17;;
56039;SDS011;43937;41.366;2.072;2024-02-16T03:44:44;17.20;;;5.27;;
56039;SDS011;43937;41.366;2.072;2024-02-16T03:47:10;19.43;;;6.80;;
56039;SDS011;43937;41.366;2.072;2024-02-16T03:49:35;22.60;;;10.10;;
56039;SDS011;43937;41.366;2.072;2024-02-16T03:52:01;22.92;;;10.32;;
56039;SDS011;43937;41.366;2.072;2024-02-16T03:54:27;26.55;;;10.43;;
56039;SDS011;43937;41.366;2.072;2024-02-16T03:56:53;23.90;;;10.10;;
56039;SDS011;43937;41.366;2.072;2024-02-16T03:59:19;18.38;;;9.02;;
56039;SDS011;43937;41.366;2.072;2024-02-16T04:01:45;21.33;;;8.93;;
56039;SDS011;43937;41.366;2.072;2024-02-16T04:04:11;20.05;;;9.00;;
56039;SDS011;43937;41.366;2.072;2024-02-16T04:06:36;17.00;;;7.97;;
56039;SDS011;43937;41.366;2.072;2024-02-16T04:09:03;20.95;;;8.63;;
56039;SDS011;43937;41.366;2.072;2024-02-16T04:11:31;19.20;;;7.43;;
56039;SDS011;43937;41.366;2.072;2024-02-16T04:13:57;15.43;;;7.20;;
56039;SDS011;43937;41.366;2.072;2024-02-16T04:16:22;20.60;;;7.57;;
56039;SDS011;43937;41.366;2.072;2024-02-16T04:18:49;16.55;;;7.40;;
56039;SDS011;43937;41.366;2.072;2024-02-16T04:21:18;19.27;;;7.03;;
56039;SDS011;43937;41.366;2.072;2024-02-16T04:23:43;16.87;;;7.10;;
56039;SDS011;43937;41.366;2.072;2024-02-16T04:26:09;20.27;;;7.35;;
56039;SDS011;43937;41.366;2.072;2024-02-16T04:28:35;20.20;;;7.10;;
56039;SDS011;43937;41.366;2.072;2024-02-16T04:31:00;18.80;;;6.57;;
56039;SDS011;43937;41.366;2.072;2024-02-16T04:33:26;17.27;;;6.32;;
56039;SDS011;43937;41.366;2.072;2024-02-16T04:35:52;15.52;;;5.30;;
56039;SDS011;43937;41.366;2.072;2024-02-16T04:38:18;13.73;;;4.83;;
56039;SDS011;43937;41.366;2.072;2024-02-16T04:40:43;13.55;;;3.50;;
56039;SDS011;43937;41.366;2.072;2024-02-16T04:43:09;12.83;;;3.90;;
56039;SDS011;43937;41.366;2.072;2024-02-16T04:45:35;13.77;;;3.30;;
56039;SDS011;43937;41.366;2.072;2024-02-16T04:48:06;13.43;;;3.70;;
56039;SDS011;43937;41.366;2.072;2024-02-16T04:50:34;13.77;;;3.28;;
56039;SDS011;43937;41.366;2.072;2024-02-16T04:53:00;13.48;;;3.20;;
56039;SDS011;43937;41.366;2.072;2024-02-16T04:55:29;12.52;;;3.20;;
56039;SDS011;43937;41.366;2.072;2024-02-16T04:57:56;12.63;;;3.20;;
56039;SDS011;43937;41.366;2.072;2024-02-16T05:00:21;12.02;;;2.97;;
56039;SDS011;43937;41.366;2.072;2024-02-16T05:02:47;12.43;;;3.05;;
56039;SDS011;43937;41.366;2.072;2024-02-16T05:05:13;15.57;;;3.53;;
56039;SDS011;43937;41.366;2.072;2024-02-16T05:07:41;11.30;;;2.85;;
56039;SDS011;43937;41.366;2.072;2024-02-16T05:10:08;14.40;;;3.28;;
56039;SDS011;43937;41.366;2.072;2024-02-16T05:12:34;11.68;;;3.22;;
56039;SDS011;43937;41.366;2.072;2024-02-16T05:14:59;11.80;;;3.63;;
56039;SDS011;43937;41.366;2.072;2024-02-16T05:17:25;14.20;;;3.80;;
56039;SDS011;43937;41.366;2.072;2024-02-16T05:19:51;10.30;;;3.97;;
56039;SDS011;43937;41.366;2.072;2024-02-16T05:22:19;12.20;;;4.50;;
56039;SDS011;43937;41.366;2.072;2024-02-16T05:24:46;11.95;;;4.03;;
56039;SDS011;43937;41.366;2.072;2024-02-16T05:27:12;10.73;;;3.15;;
56039;SDS011;43937;41.366;2.072;2024-02-16T05:29:38;12.20;;;3.10;;
56039;SDS011;43937;41.366;2.072;2024-02-16T05:32:04;12.13;;;3.20;;
56039;SDS011;43937;41.366;2.072;2024-02-16T05:34:30;12.43;;;3.20;;
56039;SDS011;43937;41.366;2.072;2024-02-16T05:37:02;14.10;;;3.05;;
56039;SDS011;43937;41.366;2.072;2024-02-16T05:39:35;12.25;;;3.15;;
56039;SDS011;43937;41.366;2.072;2024-02-16T05:42:08;12.68;;;3.70;;
56039;SDS011;43937;41.366;2.072;2024-02-16T05:44:34;11.32;;;3.40;;
56039;SDS011;43937;41.366;2.072;2024-02-16T05:46:59;12.57;;;3.60;;
56039;SDS011;43937;41.366;2.072;2024-02-16T05:49:24;14.50;;;3.60;;
56039;SDS011;43937;41.366;2.072;2024-02-16T05:51:50;15.00;;;3.53;;
56039;SDS011;43937;41.366;2.072;2024-02-16T05:54:34;15.60;;;3.93;;
56039;SDS011;43937;41.366;2.072;2024-02-16T05:56:59;16.10;;;3.80;;
56039;SDS011;43937;41.366;2.072;2024-02-16T05:59:24;14.97;;;3.70;;
56039;SDS011;43937;41.366;2.072;2024-02-16T06:01:52;12.43;;;3.53;;
56039;SDS011;43937;41.366;2.072;2024-02-16T06:04:17;9.60;;;3.20;;
56039;SDS011;43937;41.366;2.072;2024-02-16T06:06:43;12.60;;;3.90;;
56039;SDS011;43937;41.366;2.072;2024-02-16T06:09:08;11.25;;;3.53;;
56039;SDS011;43937;41.366;2.072;2024-02-16T06:11:36;16.23;;;3.70;;
56039;SDS011;43937;41.366;2.072;2024-02-16T06:14:03;14.87;;;3.60;;
56039;SDS011;43937;41.366;2.072;2024-02-16T06:16:28;14.20;;;3.53;;
56039;SDS011;43937;41.366;2.072;2024-02-16T06:18:53;13.43;;;3.07;;
56039;SDS011;43937;41.366;2.072;2024-02-16T06:21:19;11.47;;;3.20;;
56039;SDS011;43937;41.366;2.072;2024-02-16T06:23:44;12.82;;;3.10;;
56039;SDS011;43937;41.366;2.072;2024-02-16T06:26:10;14.77;;;3.37;;
56039;SDS011;43937;41.366;2.072;2024-02-16T06:28:35;12.32;;;3.03;;
56039;SDS011;43937;41.366;2.072;2024-02-16T06:31:00;11.57;;;3.10;;
56039;SDS011;43937;41.366;2.072;2024-02-16T06:33:26;11.70;;;3.13;;
56039;SDS011;43937;41.366;2.072;2024-02-16T06:35:52;13.45;;;2.85;;
56039;SDS011;43937;41.366;2.072;2024-02-16T06:38:17;14.53;;;3.90;;
56039;SDS011;43937;41.366;2.072;2024-02-16T06:40:43;12.13;;;3.83;;
56039;SDS011;43937;41.366;2.072;2024-02-16T06:43:08;14.57;;;3.75;;
56039;SDS011;43937;41.366;2.072;2024-02-16T06:45:33;12.93;;;3.40;;
56039;SDS011;43937;41.366;2.072;2024-02-16T06:47:59;14.13;;;3.55;;
56039;SDS011;43937;41.366;2.072;2024-02-16T06:50:25;13.20;;;3.10;;
56039;SDS011;43937;41.366;2.072;2024-02-16T06:52:50;14.57;;;4.30;;
56039;SDS011;43937;41.366;2.072;2024-02-16T06:55:16;15.97;;;4.97;;
56039;SDS011;43937;41.366;2.072;2024-02-16T06:57:41;16.55;;;4.70;;
56039;SDS011;43937;41.366;2.072;2024-02-16T07:00:08;13.10;;;4.43;;
56039;SDS011;43937;41.366;2.072;2024-02-16T07:02:34;15.45;;;3.90;;
56039;SDS011;43937;41.366;2.072;2024-02-16T07:05:00;12.88;;;4.10;;
56039;SDS011;43937;41.366;2.072;2024-02-16T07:07:26;12.32;;;4.60;;
56039;SDS011;43937;41.366;2.072;2024-02-16T07:09:52;14.13;;;3.87;;
56039;SDS011;43937;41.366;2.072;2024-02-16T07:12:17;11.97;;;3.47;;
56039;SDS011;43937;41.366;2.072;2024-02-16T07:14:44;18.05;;;4.68;;
56039;SDS011;43937;41.366;2.072;2024-02-16T07:17:10;18.98;;;5.20;;
56039;SDS011;43937;41.366;2.072;2024-02-16T07:19:36;14.98;;;3.25;;
56039;SDS011;43937;41.366;2.072;2024-02-16T07:22:02;17.65;;;3.63;;
56039;SDS011;43937;41.366;2.072;2024-02-16T07:24:28;19.48;;;5.25;;
56039;SDS011;43937;41.366;2.072;2024-02-16T07:26:54;17.40;;;4.78;;
56039;SDS011;43937;41.366;2.072;2024-02-16T07:29:25;10.77;;;3.50;;
56039;SDS011;43937;41.366;2.072;2024-02-16T07:31:53;20.67;;;5.20;;
56039;SDS011;43937;41.366;2.072;2024-02-16T07:34:19;15.80;;;4.50;;
56039;SDS011;43937;41.366;2.072;2024-02-16T07:36:44;17.07;;;3.80;;
56039;SDS011;43937;41.366;2.072;2024-02-16T07:39:10;13.45;;;3.22;;
56039;SDS011;43937;41.366;2.072;2024-02-16T07:41:37;12.77;;;3.25;;
56039;SDS011;43937;41.366;2.072;2024-02-16T07:44:03;16.20;;;3.30;;
56039;SDS011;43937;41.366;2.072;2024-02-16T07:46:29;15.23;;;3.27;;
56039;SDS011;43937;41.366;2.072;2024-02-16T07:48:55;15.60;;;3.13;;
56039;SDS011;43937;41.366;2.072;2024-02-16T07:51:20;16.38;;;3.50;;
56039;SDS011;43937;41.366;2.072;2024-02-16T07:53:46;18.73;;;5.32;;
56039;SDS011;43937;41.366;2.072;2024-02-16T07:56:12;29.53;;;6.13;;
56039;SDS011;43937;41.366;2.072;2024-02-16T07:58:37;25.53;;;5.77;;
56039;SDS011;43937;41.366;2.072;2024-02-16T08:01:03;22.48;;;5.50;;
56039;SDS011;43937;41.366;2.072;2024-02-16T08:03:28;23.17;;;6.53;;
56039;SDS011;43937;41.366;2.072;2024-02-16T08:05:55;25.87;;;6.43;;
56039;SDS011;43937;41.366;2.072;2024-02-16T08:08:22;20.90;;;6.13;;
56039;SDS011;43937;41.366;2.072;2024-02-16T08:10:48;19.87;;;5.87;;
56039;SDS011;43937;41.366;2.072;2024-02-16T08:13:13;20.73;;;6.13;;
56039;SDS011;43937;41.366;2.072;2024-02-16T08:15:39;18.05;;;6.43;;
56039;SDS011;43937;41.366;2.072;2024-02-16T08:18:04;20.03;;;6.77;;
56039;SDS011;43937;41.366;2.072;2024-02-16T08:20:30;67.25;;;11.63;;
56039;SDS011;43937;41.366;2.072;2024-02-16T08:22:56;19.60;;;6.27;;
56039;SDS011;43937;41.366;2.072;2024-02-16T08:25:22;20.65;;;4.72;;
56039;SDS011;43937;41.366;2.072;2024-02-16T08:27:48;13.35;;;3.40;;
56039;SDS011;43937;41.366;2.072;2024-02-16T08:30:14;13.45;;;3.80;;
56039;SDS011;43937;41.366;2.072;2024-02-16T08:32:42;14.63;;;3.15;;
56039;SDS011;43937;41.366;2.072;2024-02-16T08:35:08;13.55;;;3.22;;
56039;SDS011;43937;41.366;2.072;2024-02-16T08:37:34;12.93;;;3.30;;
56039;SDS011;43937;41.366;2.072;2024-02-16T08:39:59;16.50;;;4.20;;
56039;SDS011;43937;41.366;2.072;2024-02-16T08:42:26;14.23;;;4.40;;
56039;SDS011;43937;41.366;2.072;2024-02-16T08:44:51;15.83;;;3.40;;
56039;SDS011;43937;41.366;2.072;2024-02-16T08:47:17;10.75;;;3.15;;
56039;SDS011;43937;41.366;2.072;2024-02-16T08:49:42;10.77;;;2.97;;
56039;SDS011;43937;41.366;2.072;2024-02-16T08:52:08;11.67;;;2.80;;
56039;SDS011;43937;41.366;2.072;2024-02-16T08:54:33;12.37;;;2.70;;
56039;SDS011;43937;41.366;2.072;2024-02-16T08:56:59;13.77;;;2.97;;
56039;SDS011;43937;41.366;2.072;2024-02-16T08:59:24;10.83;;;2.40;;
56039;SDS011;43937;41.366;2.072;2024-02-16T09:01:51;9.23;;;2.60;;
56039;SDS011;43937;41.366;2.072;2024-02-16T09:04:17;11.68;;;2.67;;
56039;SDS011;43937;41.366;2.072;2024-02-16T09:06:42;10.00;;;2.47;;
56039;SDS011;43937;41.366;2.072;2024-02-16T09:09:08;12.03;;;2.90;;
56039;SDS011;43937;41.366;2.072;2024-02-16T09:11:34;11.07;;;2.80;;
56039;SDS011;43937;41.366;2.072;2024-02-16T09:13:59;13.73;;;3.20;;
56039;SDS011;43937;41.366;2.072;2024-02-16T09:16:25;12.05;;;3.00;;
56039;SDS011;43937;41.366;2.072;2024-02-16T09:18:51;13.52;;;3.42;;
56039;SDS011;43937;41.366;2.072;2024-02-16T09:21:16;14.10;;;3.03;;
56039;SDS011;43937;41.366;2.072;2024-02-16T09:23:42;12.55;;;3.05;;
56039;SDS011;43937;41.366;2.072;2024-02-16T09:26:07;9.77;;;2.60;;
56039;SDS011;43937;41.366;2.072;2024-02-16T09:28:40;10.35;;;2.60;;
56039;SDS011;43937;41.366;2.072;2024-02-16T09:31:09;10.30;;;2.63;;
56039;SDS011;43937;41.366;2.072;2024-02-16T09:33:38;17.05;;;3.67;;
56039;SDS011;43937;41.366;2.072;2024-02-16T09:36:04;9.47;;;2.43;;
56039;SDS011;43937;41.366;2.072;2024-02-16T09:38:30;9.35;;;2.50;;
56039;SDS011;43937;41.366;2.072;2024-02-16T09:40:56;9.02;;;2.45;;
56039;SDS011;43937;41.366;2.072;2024-02-16T09:43:28;6.70;;;2.00;;
56039;SDS011;43937;41.366;2.072;2024-02-16T09:45:58;17.50;;;5.72;;
56039;SDS011;43937;41.366;2.072;2024-02-16T09:48:28;17.53;;;6.60;;
56039;SDS011;43937;41.366;2.072;2024-02-16T09:50:54;21.50;;;6.67;;
56039;SDS011;43937;41.366;2.072;2024-02-16T09:53:27;20.73;;;6.82;;
56039;SDS011;43937;41.366;2.072;2024-02-16T09:55:53;25.65;;;7.20;;
56039;SDS011;43937;41.366;2.072;2024-02-16T09:58:19;23.00;;;6.53;;
56039;SDS011;43937;41.366;2.072;2024-02-16T10:00:51;23.27;;;6.75;;
56039;SDS011;43937;41.366;2.072;2024-02-16T10:03:36;27.02;;;6.60;;
56039;SDS011;43937;41.366;2.072;2024-02-16T10:08:34;19.23;;;6.90;;
56039;SDS011;43937;41.366;2.072;2024-02-16T10:11:11;23.08;;;6.97;;
56039;SDS011;43937;41.366;2.072;2024-02-16T10:13:36;26.50;;;7.57;;
56039;SDS011;43937;41.366;2.072;2024-02-16T10:16:06;25.17;;;7.40;;
56039;SDS011;43937;41.366;2.072;2024-02-16T10:18:34;17.67;;;6.35;;
56039;SDS011;43937;41.366;2.072;2024-02-16T10:21:05;18.08;;;5.93;;
56039;SDS011;43937;41.366;2.072;2024-02-16T10:23:30;18.80;;;5.73;;
56039;SDS011;43937;41.366;2.072;2024-02-16T10:25:56;21.83;;;5.87;;
56039;SDS011;43937;41.366;2.072;2024-02-16T10:28:24;17.92;;;5.85;;
56039;SDS011;43937;41.366;2.072;2024-02-16T10:30:55;22.88;;;5.50;;
56039;SDS011;43937;41.366;2.072;2024-02-16T10:33:24;17.65;;;5.50;;
56039;SDS011;43937;41.366;2.072;2024-02-16T10:35:53;17.75;;;5.50;;
56039;SDS011;43937;41.366;2.072;2024-02-16T10:38:22;21.13;;;5.40;;
56039;SDS011;43937;41.366;2.072;2024-02-16T10:40:48;22.00;;;5.00;;
56039;SDS011;43937;41.366;2.072;2024-02-16T10:43:16;14.57;;;5.20;;
56039;SDS011;43937;41.366;2.072;2024-02-16T10:45:43;21.20;;;5.43;;
56039;SDS011;43937;41.366;2.072;2024-02-16T10:48:10;21.67;;;5.23;;
56039;SDS011;43937;41.366;2.072;2024-02-16T10:50:36;14.47;;;4.60;;
56039;SDS011;43937;41.366;2.072;2024-02-16T10:53:09;18.08;;;5.25;;
56039;SDS011;43937;41.366;2.072;2024-02-16T10:55:43;31.90;;;6.53;;
56039;SDS011;43937;41.366;2.072;2024-02-16T10:58:10;21.27;;;7.00;;
56039;SDS011;43937;41.366;2.072;2024-02-16T11:00:36;24.65;;;6.93;;
56039;SDS011;43937;41.366;2.072;2024-02-16T11:03:02;23.50;;;7.67;;
56039;SDS011;43937;41.366;2.072;2024-02-16T11:05:35;24.58;;;7.72;;
56039;SDS011;43937;41.366;2.072;2024-02-16T11:08:05;22.05;;;7.85;;
56039;SDS011;43937;41.366;2.072;2024-02-16T11:10:38;26.60;;;8.05;;
56039;SDS011;43937;41.366;2.072;2024-02-16T11:13:03;24.73;;;7.57;;
56039;SDS011;43937;41.366;2.072;2024-02-16T11:15:33;19.13;;;6.60;;
56039;SDS011;43937;41.366;2.072;2024-02-16T11:18:00;19.85;;;6.10;;
56039;SDS011;43937;41.366;2.072;2024-02-16T11:20:27;17.50;;;5.22;;
56039;SDS011;43937;41.366;2.072;2024-02-16T11:22:52;19.97;;;4.63;;
56039;SDS011;43937;41.366;2.072;2024-02-16T11:25:18;12.25;;;4.50;;
56039;SDS011;43937;41.366;2.072;2024-02-16T11:28:04;13.60;;;4.38;;
56039;SDS011;43937;41.366;2.072;2024-02-16T11:30:34;13.52;;;4.45;;
56039;SDS011;43937;41.366;2.072;2024-02-16T11:33:00;16.00;;;4.53;;
56039;SDS011;43937;41.366;2.072;2024-02-16T11:35:26;23.07;;;4.40;;
56039;SDS011;43937;41.366;2.072;2024-02-16T11:37:51;27.87;;;4.60;;
56039;SDS011;43937;41.366;2.072;2024-02-16T11:40:17;32.55;;;4.93;;
56039;SDS011;43937;41.366;2.072;2024-02-16T11:42:44;13.98;;;4.00;;
56039;SDS011;43937;41.366;2.072;2024-02-16T11:45:11;15.70;;;3.80;;
56039;SDS011;43937;41.366;2.072;2024-02-16T11:47:37;33.30;;;5.28;;
56039;SDS011;43937;41.366;2.072;2024-02-16T11:50:07;24.30;;;4.78;;
56039;SDS011;43937;41.366;2.072;2024-02-16T11:52:36;18.50;;;5.03;;
56039;SDS011;43937;41.366;2.072;2024-02-16T11:55:03;19.15;;;4.55;;
56039;SDS011;43937;41.366;2.072;2024-02-16T11:57:29;15.00;;;4.13;;
56039;SDS011;43937;41.366;2.072;2024-02-16T11:59:55;11.00;;;4.00;;
56039;SDS011;43937;41.366;2.072;2024-02-16T12:02:23;14.07;;;4.27;;
56039;SDS011;43937;41.366;2.072;2024-02-16T12:04:56;18.63;;;4.67;;
56039;SDS011;43937;41.366;2.072;2024-02-16T12:07:23;12.05;;;3.90;;
56039;SDS011;43937;41.366;2.072;2024-02-16T12:09:58;15.20;;;5.15;;
56039;SDS011;43937;41.366;2.072;2024-02-16T12:12:25;16.23;;;3.70;;
56039;SDS011;43937;41.366;2.072;2024-02-16T12:14:54;9.70;;;3.28;;
56039;SDS011;43937;41.366;2.072;2024-02-16T12:17:20;11.60;;;3.83;;
56039;SDS011;43937;41.366;2.072;2024-02-16T12:19:46;16.07;;;3.80;;
56039;SDS011;43937;41.366;2.072;2024-02-16T12:22:16;12.20;;;4.17;;
56039;SDS011;43937;41.366;2.072;2024-02-16T12:24:52;14.02;;;4.15;;
56039;SDS011;43937;41.366;2.072;2024-02-16T12:27:18;14.95;;;3.65;;
56039;SDS011;43937;41.366;2.072;2024-02-16T12:29:43;28.33;;;4.30;;
56039;SDS011;43937;41.366;2.072;2024-02-16T12:32:09;15.07;;;3.40;;
56039;SDS011;43937;41.366;2.072;2024-02-16T12:34:35;14.93;;;3.67;;
56039;SDS011;43937;41.366;2.072;2024-02-16T12:37:04;9.83;;;3.30;;
56039;SDS011;43937;41.366;2.072;2024-02-16T12:39:35;13.93;;;3.60;;
56039;SDS011;43937;41.366;2.072;2024-02-16T12:42:01;10.65;;;3.05;;
56039;SDS011;43937;41.366;2.072;2024-02-16T12:44:26;9.90;;;3.22;;
56039;SDS011;43937;41.366;2.072;2024-02-16T12:46:52;9.63;;;2.70;;
56039;SDS011;43937;41.366;2.072;2024-02-16T12:49:17;8.63;;;3.00;;
56039;SDS011;43937;41.366;2.072;2024-02-16T12:51:46;13.13;;;6.70;;
56039;SDS011;43937;41.366;2.072;2024-02-16T12:54:12;8.32;;;2.63;;
56039;SDS011;43937;41.366;2.072;2024-02-16T12:56:39;8.45;;;2.65;;
56039;SDS011;43937;41.366;2.072;2024-02-16T12:59:05;10.88;;;3.42;;
56039;SDS011;43937;41.366;2.072;2024-02-16T13:01:30;14.37;;;5.03;;
56039;SDS011;43937;41.366;2.072;2024-02-16T13:03:56;15.00;;;5.40;;
56039;SDS011;43937;41.366;2.072;2024-02-16T13:06:21;17.27;;;4.97;;
56039;SDS011;43937;41.366;2.072;2024-02-16T13:08:47;20.23;;;5.20;;
56039;SDS011;43937;41.366;2.072;2024-02-16T13:11:12;17.43;;;4.80;;
56039;SDS011;43937;41.366;2.072;2024-02-16T13:13:37;19.77;;;5.17;;
56039;SDS011;43937;41.366;2.072;2024-02-16T13:16:03;17.87;;;5.40;;
56039;SDS011;43937;41.366;2.072;2024-02-16T13:18:29;17.07;;;5.10;;
56039;SDS011;43937;41.366;2.072;2024-02-16T13:20:54;19.52;;;5.10;;
56039;SDS011;43937;41.366;2.072;2024-02-16T13:23:19;14.97;;;4.43;;
56039;SDS011;43937;41.366;2.072;2024-02-16T13:25:45;17.97;;;4.90;;
56039;SDS011;43937;41.366;2.072;2024-02-16T13:28:10;19.87;;;4.73;;
56039;SDS011;43937;41.366;2.072;2024-02-16T13:30:36;17.73;;;4.80;;
56039;SDS011;43937;41.366;2.072;2024-02-16T13:33:02;18.10;;;4.95;;
56039;SDS011;43937;41.366;2.072;2024-02-16T13:35:28;19.73;;;4.80;;
56039;SDS011;43937;41.366;2.072;2024-02-16T13:37:53;21.55;;;5.10;;
56039;SDS011;43937;41.366;2.072;2024-02-16T13:40:19;18.50;;;4.90;;
56039;SDS011;43937;41.366;2.072;2024-02-16T13:42:44;19.17;;;4.60;;
56039;SDS011;43937;41.366;2.072;2024-02-16T13:45:10;19.50;;;4.70;;
56039;SDS011;43937;41.366;2.072;2024-02-16T13:47:36;19.83;;;5.45;;
56039;SDS011;43937;41.366;2.072;2024-02-16T13:50:01;19.17;;;4.53;;
56039;SDS011;43937;41.366;2.072;2024-02-16T13:52:27;17.80;;;4.83;;
56039;SDS011;43937;41.366;2.072;2024-02-16T13:54:53;17.23;;;4.45;;
56039;SDS011;43937;41.366;2.072;2024-02-16T13:57:19;19.87;;;5.47;;
56039;SDS011;43937;41.366;2.072;2024-02-16T13:59:45;20.17;;;5.10;;
56039;SDS011;43937;41.366;2.072;2024-02-16T14:02:11;19.77;;;5.03;;
56039;SDS011;43937;41.366;2.072;2024-02-16T14:04:38;18.80;;;4.90;;
56039;SDS011;43937;41.366;2.072;2024-02-16T14:07:04;20.23;;;5.15;;
56039;SDS011;43937;41.366;2.072;2024-02-16T14:09:29;19.50;;;5.13;;
56039;SDS011;43937;41.366;2.072;2024-02-16T14:11:55;21.20;;;5.33;;
56039;SDS011;43937;41.366;2.072;2024-02-16T14:14:24;20.90;;;5.50;;
56039;SDS011;43937;41.366;2.072;2024-02-16T14:16:52;19.27;;;4.90;;
56039;SDS011;43937;41.366;2.072;2024-02-16T14:19:17;22.60;;;5.10;;
56039;SDS011;43937;41.366;2.072;2024-02-16T14:21:43;22.77;;;5.93;;
56039;SDS011;43937;41.366;2.072;2024-02-16T14:24:08;20.27;;;5.35;;
56039;SDS011;43937;41.366;2.072;2024-02-16T14:26:35;24.63;;;5.72;;
56039;SDS011;43937;41.366;2.072;2024-02-16T14:29:01;20.13;;;5.55;;
56039;SDS011;43937;41.366;2.072;2024-02-16T14:31:26;19.83;;;5.23;;